createdAt,value
2018-12-06T00:00:20.935Z,14.77
2018-12-06T00:02:49.596Z,17.40
2018-12-06T00:05:18.229Z,16.07
2018-12-06T00:08:19.188Z,15.93
2018-12-06T00:10:48.064Z,17.37
2018-12-06T00:13:16.729Z,18.67
2018-12-06T00:15:45.448Z,20.63
2018-12-06T00:18:14.083Z,12.27
2018-12-06T00:20:42.698Z,14.53
2018-12-06T00:23:11.339Z,16.23
2018-12-06T00:31:31.060Z,17.17
2018-12-06T00:33:59.674Z,13.00
2018-12-06T00:36:28.330Z,15.90
2018-12-06T00:38:56.943Z,11.77
2018-12-06T00:41:25.554Z,13.90
2018-12-06T00:43:54.155Z,10.87
2018-12-06T00:46:22.754Z,13.90
2018-12-06T00:48:51.343Z,14.10
2018-12-06T00:51:19.967Z,19.83
2018-12-06T00:53:48.553Z,23.20
2018-12-06T00:56:17.180Z,19.70
2018-12-06T00:58:45.800Z,15.77
2018-12-06T01:01:14.451Z,15.20
2018-12-06T01:03:43.110Z,14.27
2018-12-06T01:06:11.770Z,18.60
2018-12-06T01:08:40.428Z,13.73
2018-12-06T01:11:09.122Z,11.23
2018-12-06T01:13:37.767Z,12.43
2018-12-06T01:16:06.395Z,13.83
2018-12-06T01:18:35.012Z,9.97
2018-12-06T01:21:03.662Z,12.13
2018-12-06T01:23:32.288Z,10.90
2018-12-06T01:26:00.915Z,13.87
2018-12-06T01:28:29.547Z,11.73
2018-12-06T01:30:58.184Z,9.93
2018-12-06T01:33:26.811Z,9.27
2018-12-06T01:35:55.484Z,16.97
2018-12-06T01:38:24.097Z,9.97
2018-12-06T01:40:52.740Z,12.33
2018-12-06T01:43:21.380Z,10.50
2018-12-06T01:45:50.007Z,11.83
2018-12-06T01:48:18.835Z,9.20
2018-12-06T01:50:47.479Z,9.67
2018-12-06T01:53:16.112Z,9.37
2018-12-06T01:55:44.751Z,9.60
2018-12-06T01:58:13.390Z,8.40
2018-12-06T02:00:42.059Z,9.97
2018-12-06T02:03:10.704Z,10.57
2018-12-06T02:05:39.324Z,10.73
2018-12-06T02:08:07.923Z,9.63
2018-12-06T02:10:36.571Z,10.30
2018-12-06T02:13:05.215Z,11.57
2018-12-06T02:15:33.872Z,9.97
2018-12-06T02:18:02.513Z,9.37
2018-12-06T02:20:31.169Z,9.83
2018-12-06T02:23:00.562Z,10.33
2018-12-06T02:25:29.209Z,11.53
2018-12-06T02:27:57.873Z,7.73
2018-12-06T02:30:26.511Z,10.30
2018-12-06T02:32:55.149Z,7.33
2018-12-06T02:35:23.795Z,11.13
2018-12-06T02:37:52.427Z,11.27
2018-12-06T02:40:21.052Z,13.27
2018-12-06T02:42:49.685Z,10.03
2018-12-06T02:45:18.326Z,8.13
2018-12-06T02:47:46.983Z,11.97
2018-12-06T02:50:15.617Z,10.87
2018-12-06T02:52:44.232Z,12.83
2018-12-06T02:55:12.969Z,9.17
2018-12-06T02:57:41.588Z,8.20
2018-12-06T03:00:10.251Z,14.87
2018-12-06T03:02:38.872Z,10.43
2018-12-06T03:05:07.659Z,9.37
2018-12-06T03:07:36.287Z,10.97
2018-12-06T03:10:05.492Z,9.70
2018-12-06T03:12:34.236Z,10.20
2018-12-06T03:15:03.174Z,11.87
2018-12-06T03:17:32.447Z,11.47
2018-12-06T03:20:01.065Z,13.40
2018-12-06T03:22:29.700Z,9.00
2018-12-06T03:24:58.330Z,10.07
2018-12-06T03:27:27.016Z,10.00
2018-12-06T03:29:55.636Z,9.53
2018-12-06T03:32:24.285Z,9.23
2018-12-06T03:34:52.913Z,11.67
2018-12-06T03:37:21.541Z,8.60
2018-12-06T03:39:50.221Z,11.67
2018-12-06T03:42:19.226Z,8.73
2018-12-06T03:44:47.871Z,9.20
2018-12-06T03:47:16.508Z,9.17
2018-12-06T03:49:45.173Z,12.07
2018-12-06T03:52:13.808Z,9.03
2018-12-06T03:54:42.501Z,9.90
2018-12-06T03:57:11.128Z,8.23
2018-12-06T03:59:39.756Z,7.53
2018-12-06T04:02:08.427Z,6.47
2018-12-06T04:04:37.056Z,7.87
2018-12-06T04:07:05.687Z,9.07
2018-12-06T04:09:34.352Z,6.50
2018-12-06T04:12:02.983Z,8.33
2018-12-06T04:14:31.671Z,6.50
2018-12-06T04:17:00.369Z,7.40
2018-12-06T04:19:28.995Z,6.97
2018-12-06T04:21:57.640Z,7.93
2018-12-06T04:24:26.277Z,9.33
2018-12-06T04:26:54.904Z,7.77
2018-12-06T04:29:23.546Z,8.30
2018-12-06T04:31:52.177Z,8.07
2018-12-06T04:34:20.808Z,6.73
2018-12-06T04:36:49.440Z,8.73
2018-12-06T04:39:18.064Z,7.47
2018-12-06T04:41:46.692Z,7.93
2018-12-06T04:44:15.317Z,7.50
2018-12-06T04:46:43.960Z,7.00
2018-12-06T04:49:12.643Z,7.87
2018-12-06T04:51:41.287Z,7.40
2018-12-06T04:54:09.991Z,7.70
2018-12-06T04:56:38.626Z,9.63
2018-12-06T04:59:07.255Z,7.67
2018-12-06T05:01:35.919Z,7.37
2018-12-06T05:04:04.573Z,9.30
2018-12-06T05:06:33.193Z,9.80
2018-12-06T05:09:01.830Z,8.70
2018-12-06T05:11:30.512Z,8.33
2018-12-06T05:13:59.172Z,6.73
2018-12-06T05:16:27.876Z,6.40
2018-12-06T05:18:56.536Z,7.60
2018-12-06T05:21:25.167Z,7.67
2018-12-06T05:23:53.822Z,7.37
2018-12-06T05:26:22.439Z,9.97
2018-12-06T05:28:51.085Z,7.80
2018-12-06T05:31:19.712Z,8.43
2018-12-06T05:33:48.309Z,10.00
2018-12-06T05:36:16.940Z,9.27
2018-12-06T05:38:45.539Z,9.20
2018-12-06T05:41:14.184Z,8.10
2018-12-06T05:43:42.783Z,8.63
2018-12-06T05:46:11.380Z,7.53
2018-12-06T05:48:40.004Z,9.77
2018-12-06T05:51:08.619Z,9.33
2018-12-06T05:53:37.223Z,7.83
2018-12-06T05:56:05.832Z,6.50
2018-12-06T05:58:34.456Z,9.37
2018-12-06T06:01:03.091Z,8.00
2018-12-06T06:03:31.915Z,7.77
2018-12-06T06:06:00.564Z,7.47
2018-12-06T06:08:29.159Z,10.47
2018-12-06T06:10:57.972Z,9.77
2018-12-06T06:13:26.564Z,9.80
2018-12-06T06:15:55.165Z,10.17
2018-12-06T06:18:23.818Z,9.67
2018-12-06T06:20:52.448Z,8.53
2018-12-06T06:23:21.051Z,4.93
2018-12-06T06:25:49.688Z,5.47
2018-12-06T06:28:18.283Z,7.70
2018-12-06T06:30:46.889Z,9.47
2018-12-06T06:33:15.496Z,5.17
2018-12-06T06:35:44.104Z,3.07
2018-12-06T06:38:12.698Z,3.03
2018-12-06T06:40:41.307Z,3.67
2018-12-06T06:43:09.912Z,3.37
2018-12-06T06:45:38.551Z,4.17
2018-12-06T06:48:07.163Z,4.60
2018-12-06T06:50:35.787Z,2.27
2018-12-06T06:53:04.400Z,2.37
2018-12-06T06:55:33.003Z,4.63
2018-12-06T06:58:01.617Z,3.17
2018-12-06T07:00:30.239Z,2.47
2018-12-06T07:02:58.838Z,4.07
2018-12-06T07:05:27.454Z,6.70
2018-12-06T07:07:56.052Z,7.70
2018-12-06T07:10:24.657Z,15.10
2018-12-06T07:12:53.263Z,14.40
2018-12-06T07:15:22.031Z,11.57
2018-12-06T07:17:50.660Z,11.87
2018-12-06T07:20:19.315Z,10.13
2018-12-06T07:22:47.977Z,7.30
2018-12-06T07:25:16.600Z,4.83
2018-12-06T07:27:45.203Z,4.67
2018-12-06T07:30:13.832Z,5.43
2018-12-06T07:32:42.461Z,5.80
2018-12-06T07:35:11.090Z,6.60
2018-12-06T07:37:39.689Z,3.97
2018-12-06T07:40:08.399Z,2.57
2018-12-06T07:42:36.995Z,3.37
2018-12-06T07:45:05.984Z,2.37
2018-12-06T07:47:34.611Z,2.93
2018-12-06T07:50:03.815Z,3.13
2018-12-06T07:52:32.431Z,5.60
2018-12-06T07:55:01.031Z,2.00
2018-12-06T07:57:29.636Z,4.23
2018-12-06T07:59:58.352Z,0.90
2018-12-06T08:02:26.972Z,4.87
2018-12-06T08:04:55.597Z,3.73
2018-12-06T08:07:25.043Z,2.13
2018-12-06T08:09:53.657Z,1.50
2018-12-06T08:12:22.287Z,3.47
2018-12-06T08:14:50.940Z,3.30
2018-12-06T08:17:19.584Z,3.73
2018-12-06T08:19:48.188Z,3.83
2018-12-06T08:22:17.160Z,4.67
2018-12-06T08:24:45.791Z,2.53
2018-12-06T08:27:14.404Z,4.10
2018-12-06T08:29:43.044Z,4.17
2018-12-06T08:32:11.671Z,2.07
2018-12-06T08:34:47.588Z,3.77
2018-12-06T08:37:16.270Z,1.97
2018-12-06T08:39:44.964Z,0.97
2018-12-06T08:42:13.629Z,1.10
2018-12-06T08:44:42.304Z,1.77
2018-12-06T08:47:10.982Z,0.97
2018-12-06T08:49:39.599Z,1.03
2018-12-06T08:52:08.231Z,0.77
2018-12-06T08:54:36.853Z,1.60
2018-12-06T08:57:05.503Z,2.90
2018-12-06T08:59:34.134Z,3.50
2018-12-06T09:02:02.811Z,0.97
2018-12-06T09:04:31.433Z,1.43
2018-12-06T09:07:00.073Z,0.67
2018-12-06T09:09:28.700Z,1.37
2018-12-06T09:11:57.312Z,0.20
2018-12-06T09:14:25.936Z,0.73
2018-12-06T09:16:54.561Z,0.10
2018-12-06T09:19:23.201Z,0.40
2018-12-06T09:21:51.864Z,0.60
2018-12-06T09:24:20.553Z,0.27
2018-12-06T09:26:49.191Z,0.47
2018-12-06T09:29:17.856Z,0.43
2018-12-06T09:31:46.481Z,0.17
2018-12-06T09:34:15.116Z,0.10
2018-12-06T09:36:43.739Z,0.97
2018-12-06T09:39:12.368Z,0.47
2018-12-06T09:41:41.150Z,0.10
2018-12-06T09:44:09.858Z,0.30
2018-12-06T09:46:38.521Z,0.03
2018-12-06T09:55:14.864Z,0.23
2018-12-06T09:57:43.563Z,0.30
2018-12-06T10:00:14.864Z,0.17
2018-12-06T10:02:43.504Z,0.20
2018-12-06T10:05:12.201Z,0.93
2018-12-06T10:07:40.845Z,0.30
2018-12-06T10:10:09.695Z,0.00
2018-12-06T10:12:38.319Z,0.00
2018-12-06T10:15:07.384Z,0.60
2018-12-06T10:17:36.045Z,0.20
2018-12-06T10:20:06.507Z,0.30
2018-12-06T10:22:36.443Z,0.00
2018-12-06T10:25:08.132Z,0.00
2018-12-06T10:27:36.812Z,0.30
2018-12-06T10:30:06.627Z,0.00
2018-12-06T10:32:35.552Z,0.10
2018-12-06T10:35:04.757Z,0.00
2018-12-06T10:37:33.465Z,0.10
2018-12-06T10:40:02.088Z,0.73
2018-12-06T10:42:30.744Z,0.43
2018-12-06T10:45:00.212Z,0.20
2018-12-06T10:47:29.206Z,0.03
2018-12-06T10:49:58.693Z,0.20
2018-12-06T10:52:28.722Z,0.17
2018-12-06T10:54:57.356Z,0.00
2018-12-06T10:57:25.973Z,0.43
2018-12-06T10:59:54.591Z,0.07
2018-12-06T11:02:32.717Z,0.40
2018-12-06T11:05:01.364Z,0.10
2018-12-06T11:07:30.014Z,0.20
2018-12-06T11:09:58.737Z,0.10
2018-12-06T11:12:27.373Z,0.07
2018-12-06T11:14:56.035Z,0.17
2018-12-06T11:17:24.672Z,0.10
2018-12-06T11:19:54.433Z,0.00
2018-12-06T11:22:23.082Z,1.70
2018-12-06T11:24:52.739Z,11.10
2018-12-06T11:27:21.501Z,12.63
2018-12-06T11:29:50.133Z,7.70
2018-12-06T11:32:18.785Z,9.37
2018-12-06T11:34:47.424Z,13.50
2018-12-06T11:37:16.097Z,3.23
2018-12-06T11:39:44.728Z,3.10
2018-12-06T11:42:13.371Z,0.87
2018-12-06T11:44:42.037Z,19.83
2018-12-06T11:47:10.659Z,6.30
2018-12-06T11:49:39.284Z,2.13
2018-12-06T11:52:07.919Z,0.50
2018-12-06T11:54:36.555Z,0.10
2018-12-06T11:57:05.213Z,0.23
2018-12-06T11:59:33.843Z,0.13
2018-12-06T12:02:09.771Z,0.60
2018-12-06T12:04:33.172Z,0.20
2018-12-06T12:07:01.812Z,7.73
2018-12-06T12:09:30.437Z,5.67
2018-12-06T12:11:59.061Z,17.13
2018-12-06T12:14:27.740Z,1.20
2018-12-06T12:16:56.400Z,0.30
2018-12-06T12:19:25.021Z,1.13
2018-12-06T12:21:53.657Z,0.30
2018-12-06T12:24:22.287Z,2.20
2018-12-06T12:26:50.936Z,0.10
2018-12-06T12:29:19.692Z,0.10
2018-12-06T12:31:48.345Z,0.30
2018-12-06T12:34:16.980Z,0.10
2018-12-06T12:36:45.640Z,0.43
2018-12-06T12:39:14.268Z,0.00
2018-12-06T12:41:42.931Z,0.07
2018-12-06T12:44:11.560Z,0.00
2018-12-06T12:46:40.521Z,0.20
2018-12-06T12:49:09.141Z,0.00
2018-12-06T12:51:37.800Z,0.97
2018-12-06T12:54:06.436Z,0.30
2018-12-06T12:56:35.072Z,1.90
2018-12-06T12:59:03.747Z,4.27
2018-12-06T13:01:32.348Z,1.27
2018-12-06T13:04:01.009Z,9.97
2018-12-06T13:06:32.168Z,13.67
2018-12-06T13:09:00.852Z,17.97
2018-12-06T13:11:29.499Z,7.00
2018-12-06T13:13:58.127Z,3.07
2018-12-06T13:16:26.756Z,3.10
2018-12-06T13:18:55.406Z,2.00
2018-12-06T13:21:24.058Z,0.20
2018-12-06T13:23:52.678Z,0.10
2018-12-06T13:26:21.320Z,2.23
2018-12-06T13:28:49.949Z,3.67
2018-12-06T13:31:18.631Z,0.50
2018-12-06T13:33:47.658Z,0.30
2018-12-06T13:36:16.316Z,0.10
2018-12-06T13:38:44.977Z,0.10
2018-12-06T13:41:13.647Z,0.17
2018-12-06T13:43:42.268Z,0.00
2018-12-06T13:46:11.014Z,0.07
2018-12-06T13:48:39.776Z,0.00
2018-12-06T13:51:08.396Z,0.90
2018-12-06T13:53:37.085Z,0.20
2018-12-06T13:56:05.772Z,0.17
2018-12-06T13:58:34.391Z,0.10
2018-12-06T14:01:03.218Z,1.20
2018-12-06T14:03:32.301Z,0.00
2018-12-06T14:06:00.973Z,0.00
2018-12-06T14:08:29.604Z,0.00
2018-12-06T14:10:58.274Z,0.00
2018-12-06T14:13:26.888Z,0.00
2018-12-06T14:15:55.540Z,0.00
2018-12-06T14:18:24.219Z,0.20
2018-12-06T14:20:52.841Z,1.53
2018-12-06T14:23:21.461Z,0.80
2018-12-06T14:25:50.098Z,0.53
2018-12-06T14:28:18.738Z,0.10
2018-12-06T14:30:47.452Z,0.40
2018-12-06T14:33:16.136Z,0.20
2018-12-06T14:35:44.784Z,0.00
2018-12-06T14:38:13.421Z,0.30
2018-12-06T14:40:42.067Z,0.20
2018-12-06T14:43:10.961Z,0.10
2018-12-06T14:45:39.852Z,0.20
2018-12-06T14:48:09.191Z,0.57
2018-12-06T14:50:37.832Z,0.93
2018-12-06T14:53:06.465Z,0.10
2018-12-06T14:55:35.113Z,2.13
2018-12-06T14:58:04.816Z,0.00
2018-12-06T15:00:33.443Z,0.10
2018-12-06T15:03:02.705Z,0.00
2018-12-06T15:05:31.361Z,0.00
2018-12-06T15:07:59.993Z,0.57
2018-12-06T15:10:28.633Z,0.37
2018-12-06T15:12:57.266Z,0.10
2018-12-06T15:15:25.920Z,0.87
2018-12-06T15:17:54.537Z,0.10
2018-12-06T15:20:23.169Z,0.00
2018-12-06T15:22:51.862Z,0.10
2018-12-06T15:25:20.968Z,0.10
2018-12-06T15:27:50.256Z,0.20
2018-12-06T15:30:18.905Z,0.00
2018-12-06T15:32:47.550Z,0.10
2018-12-06T15:35:16.240Z,0.00
2018-12-06T15:37:44.884Z,0.20
2018-12-06T15:40:13.524Z,0.00
2018-12-06T15:42:42.200Z,0.20
2018-12-06T15:45:10.836Z,0.10
2018-12-06T15:47:39.467Z,0.23
2018-12-06T15:50:08.188Z,0.57
2018-12-06T15:52:36.812Z,0.40
2018-12-06T15:55:05.952Z,0.30
2018-12-06T15:57:34.583Z,0.20
2018-12-06T16:00:04.076Z,0.30
2018-12-06T16:02:32.712Z,0.10
2018-12-06T16:05:01.368Z,0.23
2018-12-06T16:07:30.000Z,0.13
2018-12-06T16:09:58.623Z,0.10
2018-12-06T16:12:27.260Z,0.33
2018-12-06T16:14:55.901Z,0.30
2018-12-06T16:17:24.625Z,0.30
2018-12-06T16:19:53.256Z,0.50
2018-12-06T16:22:22.004Z,0.90
2018-12-06T16:24:50.648Z,1.17
2018-12-06T16:27:19.323Z,0.50
2018-12-06T16:29:51.486Z,0.70
2018-12-06T16:32:18.636Z,0.40
2018-12-06T16:34:47.274Z,0.57
2018-12-06T16:37:15.980Z,0.50
2018-12-06T16:39:44.678Z,0.80
2018-12-06T16:42:13.292Z,0.70
2018-12-06T16:44:41.912Z,0.33
2018-12-06T16:47:10.583Z,0.37
2018-12-06T16:49:39.492Z,0.60
2018-12-06T16:52:08.392Z,0.60
2018-12-06T16:54:37.032Z,0.60
2018-12-06T16:57:05.661Z,0.50
2018-12-06T16:59:34.307Z,0.70
2018-12-06T17:02:02.941Z,0.30
2018-12-06T17:04:31.565Z,1.37
2018-12-06T17:07:00.241Z,0.67
2018-12-06T17:09:28.864Z,0.40
2018-12-06T17:11:57.481Z,0.10
2018-12-06T17:14:26.108Z,0.20
2018-12-06T17:16:54.732Z,0.10
2018-12-06T17:19:23.404Z,0.83
2018-12-06T17:21:52.055Z,0.20
2018-12-06T17:24:20.699Z,0.43
2018-12-06T17:26:49.316Z,0.20
2018-12-06T17:29:17.956Z,0.00
2018-12-06T17:31:46.608Z,0.43
2018-12-06T17:34:15.233Z,0.50
2018-12-06T17:36:43.888Z,1.00
2018-12-06T17:39:12.558Z,0.43
2018-12-06T17:41:41.196Z,0.77
2018-12-06T17:44:09.825Z,0.00
2018-12-06T17:46:38.449Z,0.50
2018-12-06T17:49:07.105Z,0.80
2018-12-06T17:51:35.751Z,0.40
2018-12-06T17:54:04.438Z,0.10
2018-12-06T17:56:33.168Z,0.30
2018-12-06T17:59:01.812Z,0.27
2018-12-06T18:01:30.457Z,0.67
2018-12-06T18:03:59.083Z,0.57
2018-12-06T18:06:27.723Z,1.87
2018-12-06T18:08:56.355Z,0.37
2018-12-06T18:11:24.988Z,0.10
2018-12-06T18:13:53.597Z,0.57
2018-12-06T18:16:22.220Z,0.70
2018-12-06T18:18:50.984Z,1.70
2018-12-06T18:21:20.282Z,1.80
2018-12-06T18:23:48.895Z,0.53
2018-12-06T18:26:17.576Z,0.40
2018-12-06T18:28:46.246Z,0.00
2018-12-06T18:31:14.873Z,0.50
2018-12-06T18:33:43.488Z,0.57
2018-12-06T18:36:12.107Z,0.23
2018-12-06T18:38:40.735Z,0.43
2018-12-06T18:41:09.547Z,0.80
2018-12-06T18:43:38.200Z,1.30
2018-12-06T18:46:06.832Z,1.10
2018-12-06T18:48:35.480Z,0.60
2018-12-06T18:51:04.211Z,2.97
2018-12-06T18:53:33.132Z,0.60
2018-12-06T18:56:01.800Z,0.70
2018-12-06T18:58:34.413Z,0.93
2018-12-06T19:01:01.104Z,1.00
2018-12-06T19:03:29.768Z,0.93
2018-12-06T19:05:58.401Z,1.27
2018-12-06T19:08:27.256Z,0.60
2018-12-06T19:10:55.876Z,0.80
2018-12-06T19:13:24.511Z,0.47
2018-12-06T19:15:53.139Z,0.30
2018-12-06T19:18:21.759Z,0.50
2018-12-06T19:20:50.392Z,0.30
2018-12-06T19:23:19.011Z,1.07
2018-12-06T19:25:47.648Z,0.27
2018-12-06T19:28:16.288Z,1.00
2018-12-06T19:30:44.932Z,0.40
2018-12-06T19:33:13.540Z,0.77
2018-12-06T19:35:42.218Z,0.13
2018-12-06T19:38:10.885Z,0.50
2018-12-06T19:40:39.528Z,0.10
2018-12-06T19:43:08.204Z,0.10
2018-12-06T19:45:36.875Z,0.10
2018-12-06T19:48:05.607Z,0.80
2018-12-06T19:50:34.285Z,0.27
2018-12-06T19:53:02.909Z,0.10
2018-12-06T19:55:31.590Z,0.00
2018-12-06T19:58:00.224Z,0.00
2018-12-06T20:00:28.877Z,0.93
2018-12-06T20:02:57.487Z,0.30
2018-12-06T20:05:26.274Z,0.70
2018-12-06T20:07:54.916Z,0.57
2018-12-06T20:10:23.540Z,0.37
2018-12-06T20:12:52.212Z,0.50
2018-12-06T20:15:20.835Z,2.13
2018-12-06T20:17:49.456Z,1.07
2018-12-06T20:20:23.543Z,5.73
2018-12-06T20:22:48.793Z,2.47
2018-12-06T20:25:17.420Z,2.67
2018-12-06T20:27:46.072Z,1.73
2018-12-06T20:30:14.752Z,1.80
2018-12-06T20:32:43.412Z,0.63
2018-12-06T20:35:12.050Z,0.20
2018-12-06T20:37:40.680Z,0.50
2018-12-06T20:40:09.384Z,0.20
2018-12-06T20:42:38.009Z,0.40
2018-12-06T20:45:06.840Z,0.50
2018-12-06T20:47:35.515Z,0.20
2018-12-06T20:50:04.348Z,0.90
2018-12-06T20:52:32.996Z,0.23
2018-12-06T20:55:01.622Z,0.50
2018-12-06T20:57:36.919Z,0.50
2018-12-06T21:00:01.028Z,0.20
2018-12-06T21:02:29.879Z,0.40
2018-12-06T21:04:58.509Z,0.90
2018-12-06T21:07:29.143Z,0.50
2018-12-06T21:09:58.768Z,0.97
2018-12-06T21:12:27.521Z,1.07
2018-12-06T21:14:56.148Z,3.07
2018-12-06T21:17:24.779Z,4.23
2018-12-06T21:19:53.407Z,4.63
2018-12-06T21:22:22.049Z,3.13
2018-12-06T21:24:50.692Z,6.50
2018-12-06T21:27:19.341Z,6.37
2018-12-06T21:29:47.980Z,4.20
2018-12-06T21:32:16.635Z,4.37
2018-12-06T21:34:45.293Z,4.23
2018-12-06T21:37:13.947Z,6.57
2018-12-06T21:39:42.588Z,3.87
2018-12-06T21:42:11.223Z,5.83
2018-12-06T21:44:39.851Z,4.17
2018-12-06T21:47:10.642Z,7.37
2018-12-06T21:49:39.312Z,11.47
2018-12-06T21:52:07.944Z,9.90
2018-12-06T21:54:36.581Z,6.03
2018-12-06T21:57:05.240Z,6.00
2018-12-06T21:59:33.887Z,5.43
2018-12-06T22:02:28.491Z,4.70
2018-12-06T22:04:57.152Z,5.73
2018-12-06T22:07:25.844Z,4.20
2018-12-06T22:09:54.560Z,4.20
2018-12-06T22:12:23.228Z,4.93
2018-12-06T22:14:51.874Z,6.60
2018-12-06T22:17:20.589Z,11.10
2018-12-06T22:19:49.248Z,11.80
2018-12-06T22:22:18.009Z,15.30
2018-12-06T22:24:46.787Z,9.43
2018-12-06T22:27:16.052Z,5.17
2018-12-06T22:29:44.751Z,3.77
2018-12-06T22:32:13.939Z,2.63
2018-12-06T22:34:49.361Z,3.60
2018-12-06T22:37:18.867Z,2.67
2018-12-06T22:39:47.589Z,3.40
2018-12-06T22:42:16.245Z,2.27
2018-12-06T22:44:44.967Z,2.40
2018-12-06T22:47:13.691Z,1.50
2018-12-06T22:49:42.361Z,1.87
2018-12-06T22:52:10.987Z,1.53
2018-12-06T22:54:39.639Z,1.50
2018-12-06T22:57:08.352Z,1.13
2018-12-06T22:59:37.048Z,1.67
2018-12-06T23:02:05.867Z,1.00
2018-12-06T23:04:34.555Z,0.70
2018-12-06T23:07:03.200Z,0.50
2018-12-06T23:09:31.912Z,2.93
2018-12-06T23:12:00.608Z,5.67
2018-12-06T23:14:29.277Z,4.53
2018-12-06T23:16:57.937Z,5.90
2018-12-06T23:19:26.619Z,5.10
2018-12-06T23:21:55.285Z,4.00
2018-12-06T23:24:23.976Z,4.53
2018-12-06T23:26:52.635Z,3.03
2018-12-06T23:29:21.295Z,0.80
2018-12-06T23:31:49.934Z,0.90
2018-12-06T23:34:18.592Z,1.43
2018-12-06T23:36:47.286Z,5.90
2018-12-06T23:39:15.976Z,7.10
2018-12-06T23:41:44.641Z,5.30
2018-12-06T23:44:13.272Z,2.10
2018-12-06T23:46:41.935Z,5.70
2018-12-06T23:49:10.624Z,2.23
2018-12-06T23:51:39.644Z,6.23
2018-12-06T23:54:08.285Z,4.27
2018-12-06T23:56:37.011Z,2.70
2018-12-06T23:59:05.683Z,5.70
